Time;durP1;ratioP1;P1;durP2;ratioP2;P2;SDS_P1;SDS_P2;PMS_P1;PMS_P2;Temp;Humidity;BMP_temperature;BMP_pressure;BME280_temperature;BME280_humidity;BME280_pressure;Samples;Min_cycle;Max_cycle;Signal;HPM_P1;HPM_P2
2022/02/10 00:06:57;;;;;;;4.95;2.55;;;3.70;99.90;;;;;;4975173;28;20238;-71
2022/02/10 00:15:26;;;;;;;5.35;2.55;;;3.70;99.90;;;;;;4975144;28;20182;-73
2022/02/10 00:17:47;;;;;;;10.25;3.55;;;3.70;99.90;;;;;;4974265;28;20259;-73
2022/02/10 00:36:25;;;;;;;5.70;3.13;;;3.70;99.90;;;;;;4974899;28;20175;-72
2022/02/10 00:39:01;;;;;;;13.52;4.10;;;3.70;99.90;;;;;;4974438;28;20348;-72
2022/02/10 00:41:27;;;;;;;2.63;2.42;;;3.60;99.90;;;;;;4974708;28;20175;-71
2022/02/10 00:43:52;;;;;;;5.50;4.07;;;3.60;99.90;;;;;;4974631;28;20168;-73
2022/02/10 00:46:19;;;;;;;3.90;2.63;;;3.60;99.90;;;;;;4974517;28;20203;-72
2022/02/10 00:48:46;;;;;;;2.45;2.25;;;3.60;99.90;;;;;;4974327;28;20194;-72
2022/02/10 00:51:12;;;;;;;4.60;2.63;;;3.60;99.90;;;;;;4974720;28;20240;-72
2022/02/10 00:53:41;;;;;;;9.55;3.80;;;3.50;99.90;;;;;;4973218;28;20304;-71
2022/02/10 00:56:09;;;;;;;2.95;2.75;;;3.60;99.90;;;;;;4974533;28;20254;-71
2022/02/10 00:58:37;;;;;;;3.90;3.20;;;3.50;99.90;;;;;;4972783;28;20204;-72
2022/02/10 01:12:28;;;;;;;4.65;2.88;;;3.30;99.90;;;;;;4978458;28;20227;-73
2022/02/10 01:30:40;;;;;;;2.53;2.40;;;3.20;99.90;;;;;;4977847;28;20223;-73
2022/02/10 01:33:09;;;;;;;3.40;3.00;;;3.20;99.90;;;;;;4978109;28;20175;-72
2022/02/10 01:35:34;;;;;;;4.90;3.67;;;3.30;99.90;;;;;;4977892;28;20255;-73
2022/02/10 01:38:00;;;;;;;5.00;2.37;;;3.30;99.90;;;;;;4977509;28;20177;-72
2022/02/10 02:04:22;;;;;;;2.40;2.30;;;3.00;99.90;;;;;;4977688;28;20187;-72
2022/02/10 02:06:51;;;;;;;3.83;2.47;;;3.00;99.90;;;;;;4977341;28;20200;-72
2022/02/10 02:09:18;;;;;;;2.65;2.45;;;3.00;99.90;;;;;;4976891;28;20553;-74
2022/02/10 02:11:47;;;;;;;3.58;2.80;;;3.00;99.90;;;;;;4975762;28;20172;-73
2022/02/10 02:14:15;;;;;;;3.65;3.25;;;3.00;99.90;;;;;;4977105;28;20194;-72
2022/02/10 02:16:46;;;;;;;2.65;2.50;;;3.00;99.90;;;;;;4977036;28;20184;-73
2022/02/10 02:19:12;;;;;;;4.90;2.97;;;2.90;99.90;;;;;;4976766;28;20196;-73
2022/02/10 02:21:43;;;;;;;2.47;2.27;;;3.00;99.90;;;;;;4976903;28;20195;-72
2022/02/10 02:24:15;;;;;;;3.20;2.65;;;3.00;99.90;;;;;;4976862;28;20408;-74
2022/02/10 02:26:41;;;;;;;3.38;3.03;;;3.00;99.90;;;;;;4976807;28;20200;-72
2022/02/10 02:29:10;;;;;;;2.30;2.10;;;3.00;99.90;;;;;;4976626;28;20655;-72
2022/02/10 02:31:51;;;;;;;2.63;2.42;;;3.10;99.90;;;;;;4976928;28;20267;-72
2022/02/10 02:37:27;;;;;;;3.40;3.10;;;3.10;99.90;;;;;;4976706;28;20176;-74
2022/02/10 03:04:41;;;;;;;2.22;2.03;;;3.30;99.90;;;;;;4957032;29;20227;-72
2022/02/10 03:07:04;;;;;;;4.65;4.07;;;3.30;99.90;;;;;;4956762;29;20212;-71
2022/02/10 03:09:30;;;;;;;2.20;2.10;;;3.30;99.90;;;;;;4956462;28;20659;-73
2022/02/10 03:11:58;;;;;;;2.45;2.35;;;3.30;99.90;;;;;;4956885;28;20172;-73
2022/02/10 03:14:32;;;;;;;5.95;2.45;;;3.20;99.90;;;;;;4956756;28;20520;-73
2022/02/10 04:13:13;;;;;;;2.95;2.33;;;3.20;99.90;;;;;;4975206;28;20176;-71
2022/02/10 04:16:26;;;;;;;3.88;2.58;;;3.20;99.90;;;;;;4973926;28;20187;-73
2022/02/10 04:22:04;;;;;;;2.75;2.60;;;3.30;99.90;;;;;;4974879;28;20202;-72
2022/02/10 04:24:14;;;;;;;2.33;2.22;;;3.30;99.90;;;;;;4974371;28;20227;-71
2022/02/10 04:26:58;;;;;;;5.28;2.58;;;3.30;99.90;;;;;;4974827;28;20222;-73
2022/02/10 04:59:18;;;;;;;2.60;2.40;;;3.30;99.90;;;;;;4974385;28;20215;-73
2022/02/10 05:23:29;;;;;;;1.65;1.55;;;3.80;99.90;;;;;;4974260;28;20221;-72
2022/02/10 05:31:48;;;;;;;2.75;2.55;;;3.90;99.90;;;;;;4974417;28;20176;-73
2022/02/10 05:34:09;;;;;;;5.50;2.67;;;4.10;99.90;;;;;;4974163;28;20259;-73
2022/02/10 05:36:38;;;;;;;1.88;1.77;;;4.00;99.90;;;;;;4974513;28;20169;-72
2022/02/10 05:39:13;;;;;;;1.92;1.55;;;4.10;99.90;;;;;;4973839;28;20192;-72
2022/02/10 06:00:16;;;;;;;2.70;2.50;;;4.60;99.90;;;;;;4977155;28;20211;-72
2022/02/10 06:38:52;;;;;;;4.45;2.05;;;4.50;99.90;;;;;;4976876;28;20179;-72
2022/02/10 06:45:54;;;;;;;6.87;2.80;;;4.90;99.90;;;;;;4968968;28;20211;-71
2022/02/10 06:55:00;;;;;;;2.53;2.17;;;5.10;99.90;;;;;;4968533;28;20256;-73
2022/02/10 08:50:03;;;;;;;2.50;2.40;;;18.60;79.40;;;;;;4954980;28;20977;-72
2022/02/10 09:55:10;;;;;;;3.50;3.10;;;23.40;63.00;;;;;;4977162;28;20444;-74
2022/02/10 10:00:15;;;;;;;3.40;2.43;;;23.80;61.50;;;;;;4976800;28;20470;-73
2022/02/10 10:02:50;;;;;;;2.70;2.13;;;23.70;60.40;;;;;;4977117;28;20777;-72
2022/02/10 10:05:27;;;;;;;2.53;2.33;;;23.60;60.00;;;;;;4976155;28;20423;-71
2022/02/10 10:15:46;;;;;;;2.60;2.40;;;20.90;63.00;;;;;;4976960;28;20427;-73
2022/02/10 10:18:40;;;;;;;2.43;2.13;;;19.50;66.10;;;;;;4976718;28;20387;-73
2022/02/10 10:24:17;;;;;;;3.17;1.83;;;18.50;70.10;;;;;;4977288;28;20401;-73
2022/02/10 10:54:43;;;;;;;4.80;3.00;;;16.70;81.60;;;;;;4976271;28;20419;-74
2022/02/10 10:57:26;;;;;;;2.20;1.90;;;16.70;81.90;;;;;;4976573;28;20466;-73
2022/02/10 11:36:47;;;;;;;4.33;2.97;;;12.80;92.70;;;;;;4975651;28;20428;-71
2022/02/10 11:41:51;;;;;;;3.13;2.83;;;12.60;93.50;;;;;;4975655;28;20904;-71
2022/02/10 11:44:47;;;;;;;3.50;3.20;;;12.50;93.90;;;;;;4975747;28;20171;-70
2022/02/10 13:48:13;;;;;;;7.78;4.30;;;10.10;99.90;;;;;;4977818;28;20223;-71
2022/02/10 14:14:32;;;;;;;5.20;3.05;;;9.30;99.90;;;;;;4976356;28;20230;-73
2022/02/10 14:17:03;;;;;;;4.72;3.78;;;9.20;99.90;;;;;;4976971;28;20573;-72
2022/02/10 14:22:05;;;;;;;3.77;3.20;;;9.20;99.90;;;;;;4976838;28;20692;-72
2022/02/10 14:27:16;;;;;;;5.65;4.03;;;9.20;99.90;;;;;;4977235;28;20531;-72
2022/02/10 14:29:42;;;;;;;3.47;3.20;;;9.10;99.90;;;;;;4976358;28;20196;-73
2022/02/10 14:32:10;;;;;;;3.65;3.45;;;9.10;99.90;;;;;;4977272;28;20779;-72
2022/02/10 14:34:36;;;;;;;4.18;3.15;;;9.10;99.90;;;;;;4976657;28;20176;-71
2022/02/10 14:37:29;;;;;;;4.20;3.10;;;9.10;99.90;;;;;;4976686;28;20257;-72
2022/02/10 14:40:05;;;;;;;5.32;4.82;;;9.10;99.90;;;;;;4976503;28;20192;-72
2022/02/10 16:17:29;;;;;;;7.68;3.33;;;8.00;99.90;;;;;;4974400;28;20176;-72
2022/02/10 16:19:55;;;;;;;3.50;3.30;;;7.90;99.90;;;;;;4974414;28;20701;-73
2022/02/10 16:22:26;;;;;;;4.83;3.87;;;7.90;99.90;;;;;;4974977;28;20202;-73
2022/02/10 16:25:05;;;;;;;3.70;3.40;;;7.90;99.90;;;;;;4973535;28;20176;-72
2022/02/10 16:27:33;;;;;;;5.05;3.35;;;7.90;99.90;;;;;;4972890;28;20298;-72
2022/02/10 16:30:08;;;;;;;4.45;3.60;;;7.90;99.90;;;;;;4974483;28;20668;-72
2022/02/10 16:32:35;;;;;;;3.85;3.53;;;7.90;99.90;;;;;;4974756;28;20203;-72
2022/02/10 16:35:03;;;;;;;5.30;3.65;;;7.90;99.90;;;;;;4974449;28;20594;-73
2022/02/10 16:37:29;;;;;;;5.72;3.67;;;7.90;99.90;;;;;;4974164;28;20179;-73
2022/02/10 16:39:54;;;;;;;4.60;3.25;;;7.90;99.90;;;;;;4973055;28;20196;-73
2022/02/10 16:42:20;;;;;;;8.93;4.23;;;7.90;99.90;;;;;;4974403;28;20231;-72
2022/02/10 16:44:51;;;;;;;4.63;4.07;;;7.90;99.90;;;;;;4974069;28;20180;-72
2022/02/10 16:47:17;;;;;;;6.00;3.92;;;7.90;99.90;;;;;;4974307;28;20211;-72
2022/02/10 16:49:49;;;;;;;3.10;2.83;;;7.90;99.90;;;;;;4973925;28;20195;-73
2022/02/10 16:52:21;;;;;;;4.43;4.10;;;7.90;99.90;;;;;;4972789;28;20182;-72
2022/02/10 16:54:50;;;;;;;2.60;2.40;;;8.00;99.90;;;;;;4974011;28;20527;-72
2022/02/10 16:57:35;;;;;;;4.47;4.05;;;7.90;99.90;;;;;;4974381;28;20621;-72
2022/02/10 17:00:34;;;;;;;3.72;3.33;;;8.00;99.90;;;;;;4974501;28;20558;-72
2022/02/10 17:25:25;;;;;;;2.35;1.48;;;8.20;99.90;;;;;;4972983;28;20666;-73
2022/02/10 17:27:55;;;;;;;3.50;1.83;;;8.30;99.90;;;;;;4972497;28;20215;-72
2022/02/10 17:30:35;;;;;;;2.17;1.98;;;8.30;99.90;;;;;;4974045;28;20195;-73
2022/02/10 17:33:17;;;;;;;2.55;1.88;;;8.30;99.90;;;;;;4973969;28;20168;-73
2022/02/10 17:36:04;;;;;;;3.13;2.05;;;8.30;99.90;;;;;;4974002;28;20179;-71
2022/02/10 17:44:15;;;;;;;2.42;2.22;;;8.40;99.90;;;;;;4966081;28;20180;-70
2022/02/10 17:52:16;;;;;;;2.63;1.73;;;8.40;99.90;;;;;;4965713;28;20188;-70
2022/02/10 17:54:44;;;;;;;2.03;1.63;;;8.40;99.90;;;;;;4977154;28;20179;-73
2022/02/10 17:57:10;;;;;;;2.28;1.92;;;8.40;99.90;;;;;;4977432;28;20179;-70
2022/02/10 17:59:36;;;;;;;1.90;1.80;;;8.40;99.90;;;;;;4976863;28;20610;-73
2022/02/10 18:02:02;;;;;;;2.05;1.85;;;8.40;99.90;;;;;;4977264;28;20304;-71
2022/02/10 18:04:29;;;;;;;4.00;1.75;;;8.40;99.90;;;;;;4977247;28;20183;-71
2022/02/10 18:06:57;;;;;;;2.25;2.05;;;8.40;99.90;;;;;;4977307;28;20196;-72
2022/02/10 18:09:52;;;;;;;2.45;1.65;;;8.30;99.90;;;;;;4976840;28;20218;-75
2022/02/10 18:17:26;;;;;;;2.45;2.25;;;8.30;99.90;;;;;;4977274;28;20266;-73
2022/02/10 18:20:00;;;;;;;1.60;1.50;;;8.30;99.90;;;;;;4976882;28;20218;-70
2022/02/10 18:25:10;;;;;;;3.83;2.00;;;8.30;99.90;;;;;;4977085;28;20176;-72
2022/02/10 18:27:55;;;;;;;2.05;1.92;;;8.30;99.90;;;;;;4976528;28;20219;-68
2022/02/10 18:30:23;;;;;;;5.13;2.10;;;8.30;99.90;;;;;;4976906;28;20634;-70
2022/02/10 19:09:49;;;;;;;2.10;2.00;;;8.00;99.90;;;;;;4968631;28;20195;-72
2022/02/10 19:12:29;;;;;;;2.08;1.58;;;8.00;99.90;;;;;;4965778;28;20171;-72
2022/02/10 19:15:09;;;;;;;1.42;1.23;;;8.00;99.90;;;;;;4972110;28;20266;-72
2022/02/10 19:17:36;;;;;;;2.08;1.85;;;7.90;99.90;;;;;;4961031;28;20171;-72
2022/02/10 19:20:05;;;;;;;2.05;1.92;;;7.90;99.90;;;;;;4965571;28;20208;-72
2022/02/10 19:22:31;;;;;;;3.10;2.83;;;7.90;99.90;;;;;;4959055;28;20249;-72
2022/02/10 19:24:57;;;;;;;3.40;2.13;;;7.90;99.90;;;;;;4965542;28;20180;-71
2022/02/10 19:27:23;;;;;;;1.60;1.50;;;7.90;99.90;;;;;;4964911;28;20199;-72
2022/02/10 19:29:56;;;;;;;2.20;2.00;;;7.80;99.90;;;;;;4963563;28;20498;-73
2022/02/10 19:32:23;;;;;;;2.40;2.00;;;7.80;99.90;;;;;;4964699;28;20266;-73
2022/02/10 19:34:50;;;;;;;1.30;1.30;;;7.80;99.90;;;;;;4962026;28;20184;-72
2022/02/10 19:37:16;;;;;;;1.70;1.60;;;7.70;99.90;;;;;;4974046;28;20179;-72
2022/02/10 19:39:45;;;;;;;3.13;2.40;;;7.70;99.90;;;;;;4975051;28;20271;-71
2022/02/10 19:42:11;;;;;;;2.72;2.53;;;7.70;99.90;;;;;;4970898;28;20180;-72
2022/02/10 19:44:38;;;;;;;2.33;2.22;;;7.70;99.90;;;;;;4956424;28;20582;-71
2022/02/10 19:47:04;;;;;;;3.28;3.03;;;7.60;99.90;;;;;;4958116;28;20661;-73
2022/02/10 19:49:30;;;;;;;2.53;2.17;;;7.60;99.90;;;;;;4964466;28;20238;-71
2022/02/10 19:51:56;;;;;;;2.38;2.17;;;7.60;99.90;;;;;;4965322;28;20411;-72
2022/02/10 19:54:28;;;;;;;2.77;2.57;;;7.50;99.90;;;;;;4966045;28;20172;-72
2022/02/10 19:56:55;;;;;;;3.17;2.38;;;7.50;99.90;;;;;;4962939;28;20175;-73
2022/02/10 19:59:27;;;;;;;2.35;1.92;;;7.50;99.90;;;;;;4962739;28;20229;-73
2022/02/10 20:01:53;;;;;;;5.68;2.53;;;7.50;99.90;;;;;;4955733;28;20180;-73
2022/02/10 20:04:24;;;;;;;1.58;1.50;;;7.50;99.90;;;;;;4971934;28;20538;-71
2022/02/10 20:06:51;;;;;;;2.33;2.00;;;7.50;99.90;;;;;;4974107;28;20206;-73
2022/02/10 20:09:17;;;;;;;2.97;2.47;;;7.50;99.90;;;;;;4973310;28;20199;-72
2022/02/10 20:11:44;;;;;;;1.85;1.75;;;7.50;99.90;;;;;;4972030;28;20572;-72
2022/02/10 20:14:09;;;;;;;3.50;3.20;;;7.40;99.90;;;;;;4963053;28;20549;-71
2022/02/10 20:16:35;;;;;;;2.97;2.77;;;7.40;99.90;;;;;;4996198;28;20180;-74
2022/02/10 20:19:02;;;;;;;5.57;2.70;;;7.40;99.90;;;;;;4963899;28;20248;-72
2022/02/10 20:21:29;;;;;;;3.45;2.83;;;7.40;99.90;;;;;;4966100;28;20237;-73
2022/02/10 20:23:56;;;;;;;3.30;2.85;;;7.40;99.90;;;;;;4962983;28;20195;-72
2022/02/10 20:26:22;;;;;;;4.13;2.87;;;7.40;99.90;;;;;;4964699;28;20216;-72
2022/02/10 20:28:47;;;;;;;2.13;1.93;;;7.40;99.90;;;;;;4962680;28;20259;-69
2022/02/10 20:31:14;;;;;;;2.50;2.27;;;7.30;99.90;;;;;;4962856;28;20200;-71
2022/02/10 20:33:40;;;;;;;2.30;1.88;;;7.30;99.90;;;;;;4964898;28;20249;-73
2022/02/10 20:36:07;;;;;;;2.25;1.95;;;7.20;99.90;;;;;;4966560;28;20174;-71
2022/02/10 20:38:37;;;;;;;3.22;2.92;;;7.20;99.90;;;;;;4967578;28;20311;-70
2022/02/10 20:41:10;;;;;;;1.77;1.67;;;7.20;99.90;;;;;;4965144;28;20267;-72
2022/02/10 20:43:36;;;;;;;3.47;2.10;;;7.20;99.90;;;;;;4964819;28;20176;-73
2022/02/10 20:46:06;;;;;;;2.35;2.15;;;7.20;99.90;;;;;;4968452;28;20188;-70
2022/02/10 20:48:35;;;;;;;3.08;2.42;;;7.20;99.90;;;;;;4968229;28;20257;-72
2022/02/10 20:51:01;;;;;;;3.83;3.50;;;7.10;99.90;;;;;;4968074;28;20176;-70
2022/02/10 20:53:29;;;;;;;4.85;3.20;;;7.20;99.90;;;;;;4964346;28;20245;-71
2022/02/10 20:55:59;;;;;;;4.63;2.17;;;7.20;99.90;;;;;;4964926;28;20173;-72
2022/02/10 20:58:27;;;;;;;6.70;2.72;;;7.20;99.90;;;;;;4963168;28;20168;-71
2022/02/10 21:00:57;;;;;;;2.33;2.10;;;7.30;99.90;;;;;;4963495;28;20251;-70
2022/02/10 21:03:26;;;;;;;2.95;1.60;;;7.30;99.90;;;;;;4969359;28;20643;-71
2022/02/10 21:05:59;;;;;;;1.85;1.75;;;7.30;99.90;;;;;;4974641;28;20571;-71
2022/02/10 21:10:54;;;;;;;2.55;2.35;;;7.40;99.90;;;;;;4955207;29;20169;-69
2022/02/10 21:13:21;;;;;;;5.07;3.43;;;7.40;99.90;;;;;;4973689;28;20181;-70
2022/02/10 21:15:47;;;;;;;3.13;2.83;;;7.40;99.90;;;;;;4974723;28;20236;-71
2022/02/10 21:18:15;;;;;;;3.45;1.85;;;7.50;99.90;;;;;;4973770;28;20531;-73
2022/02/10 21:20:43;;;;;;;3.22;1.40;;;7.50;99.90;;;;;;4974416;28;20195;-73
2022/02/10 21:25:45;;;;;;;3.00;2.08;;;7.60;99.90;;;;;;4977849;28;20214;-73
2022/02/10 21:28:21;;;;;;;2.92;2.55;;;7.60;99.90;;;;;;4977923;28;20170;-72
2022/02/10 21:30:49;;;;;;;2.65;2.45;;;7.60;99.90;;;;;;4978019;28;20202;-72
2022/02/10 21:33:31;;;;;;;3.00;2.58;;;7.60;99.90;;;;;;4978400;28;20174;-72
2022/02/10 21:38:46;;;;;;;2.95;2.75;;;7.60;99.90;;;;;;4978057;28;20198;-73
2022/02/10 21:47:35;;;;;;;2.80;2.60;;;7.60;99.90;;;;;;4977403;28;20278;-72
2022/02/10 22:19:35;;;;;;;4.88;2.85;;;7.60;99.90;;;;;;4957713;28;20219;-72
2022/02/10 22:24:16;;;;;;;7.68;5.30;;;7.50;99.90;;;;;;4964746;28;20210;-73
2022/02/10 22:26:43;;;;;;;4.65;3.45;;;7.50;99.90;;;;;;4977137;28;20285;-72
2022/02/10 22:34:39;;;;;;;3.67;3.10;;;7.50;99.90;;;;;;4955108;28;20180;-72
2022/02/10 22:37:09;;;;;;;3.63;3.33;;;7.50;99.90;;;;;;4972746;28;20196;-73
2022/02/10 22:39:40;;;;;;;3.90;3.53;;;7.40;99.90;;;;;;4976607;28;20199;-73
2022/02/10 22:42:06;;;;;;;4.47;4.07;;;7.40;99.90;;;;;;4977109;28;20258;-73
2022/02/10 22:44:33;;;;;;;3.30;2.75;;;7.30;99.90;;;;;;4976918;28;20171;-72
2022/02/10 22:47:01;;;;;;;5.65;3.40;;;7.30;99.90;;;;;;4977493;28;20241;-73
2022/02/10 22:49:27;;;;;;;3.67;3.38;;;7.30;99.90;;;;;;4976466;28;20184;-73
2022/02/10 22:51:53;;;;;;;3.67;3.22;;;7.30;99.90;;;;;;4977183;28;20214;-73
2022/02/10 22:54:19;;;;;;;4.07;3.67;;;7.30;99.90;;;;;;4982944;28;20651;-73
2022/02/10 22:56:46;;;;;;;5.90;3.43;;;7.40;99.90;;;;;;4957495;29;20172;-71
2022/02/10 22:59:12;;;;;;;7.72;3.30;;;7.40;99.90;;;;;;4956683;28;20238;-73
2022/02/10 23:01:38;;;;;;;3.67;3.38;;;7.40;99.90;;;;;;4957059;28;20188;-72
2022/02/10 23:04:05;;;;;;;3.93;3.40;;;7.40;99.90;;;;;;4955735;28;20234;-72
2022/02/10 23:06:31;;;;;;;3.75;3.53;;;7.40;99.90;;;;;;4955621;28;20470;-71
2022/02/10 23:08:56;;;;;;;4.77;4.20;;;7.40;99.90;;;;;;4956705;28;20555;-72
2022/02/10 23:11:28;;;;;;;4.10;3.80;;;7.50;99.90;;;;;;4957088;29;20191;-73
2022/02/10 23:13:55;;;;;;;4.82;4.20;;;7.40;99.90;;;;;;4956031;28;20168;-71
2022/02/10 23:16:21;;;;;;;6.40;4.10;;;7.60;99.90;;;;;;4957295;29;20168;-72
2022/02/10 23:18:47;;;;;;;4.87;4.27;;;7.60;99.90;;;;;;4955381;28;20207;-73
2022/02/10 23:21:15;;;;;;;6.70;5.22;;;7.60;99.90;;;;;;4956829;29;20196;-72
2022/02/10 23:23:46;;;;;;;4.05;3.65;;;7.60;99.90;;;;;;4957120;29;20172;-72
2022/02/10 23:26:14;;;;;;;4.72;4.32;;;7.60;99.90;;;;;;4956748;29;20200;-72
2022/02/10 23:28:47;;;;;;;4.40;3.72;;;7.60;99.90;;;;;;4956325;28;20651;-73
2022/02/10 23:31:15;;;;;;;3.88;3.47;;;7.60;99.90;;;;;;4957205;29;20582;-73
2022/02/10 23:33:43;;;;;;;6.72;4.07;;;7.60;99.90;;;;;;4956649;29;20183;-72
2022/02/10 23:38:42;;;;;;;4.63;3.22;;;7.50;99.90;;;;;;4956344;28;20189;-71
2022/02/10 23:43:53;;;;;;;4.40;3.90;;;7.50;99.90;;;;;;4956801;29;20187;-70
2022/02/10 23:46:20;;;;;;;4.38;2.45;;;7.50;99.90;;;;;;4955671;28;20210;-72
2022/02/10 23:48:46;;;;;;;4.68;3.92;;;7.50;99.90;;;;;;4954868;28;20202;-72
2022/02/10 23:51:12;;;;;;;5.53;3.97;;;7.50;99.90;;;;;;4956368;28;20164;-72
2022/02/10 23:53:38;;;;;;;4.47;3.03;;;7.50;99.90;;;;;;4959272;28;20571;-72
2022/02/10 23:56:09;;;;;;;3.45;3.15;;;7.50;99.90;;;;;;4975879;28;20183;-71
